METAR AND TAF INFORMATION
METAR FOR LEMG
ADDS - METARS form results

(0939 UTC 16 January 2019)
Data provider http://aviationweather.gov/metar/data/
 
METAR text: LEMG 160930Z 29007KT 9999 FEW030 08/07 Q1021 NOSIG
Conditions at: LEMG (MALAGA (CIV/MIL), ES) observed 0930 UTC 16 January 2019
Temperature: 8.0°C (46°F)
Dewpoint: 7.0°C (45°F) [RH = 93%]
Pressure (altimeter): 30.15 inches Hg (1021.0 mb)
Winds: from the WNW (290 degrees) at 8 MPH (7 knots; 3.6 m/s)
Visibility: 6 or more miles (10+ km)
Ceiling: at least 12,000 feet AGL
Clouds: few clouds at 3000 feet AGL
Weather: no significant weather observed at this time

METAR text: LEMG 160900Z 30007KT 9999 FEW035 07/06 Q1021 NOSIG
Conditions at: LEMG (MALAGA (CIV/MIL), ES) observed 0900 UTC 16 January 2019
Temperature: 7.0°C (45°F)
Dewpoint: 6.0°C (43°F) [RH = 93%]
Pressure (altimeter): 30.15 inches Hg (1021.0 mb)
Winds: from the WNW (300 degrees) at 8 MPH (7 knots; 3.6 m/s)
Visibility: 6 or more miles (10+ km)
Ceiling: at least 12,000 feet AGL
Clouds: few clouds at 3500 feet AGL
Weather: no significant weather observed at this time

Forecast for: LEMG (MALAGA (CIV/MIL), ES)
Text: TAF LEMG 160500Z 1606/1706 29007KT 9999 BKN030 TX18/1613Z TN07/1607Z
Forecast period: 0600 UTC 16 January 2019 to 0600 UTC 17 January 2019
Forecast type: FROM: standard forecast or significant change
Winds: from the WNW (290 degrees) at 8 MPH (7 knots; 3.6 m/s)
Visibility: 6 or more miles 10+ km)
Ceiling: 3000 feet AGL
Clouds: broken clouds at 3000 feet AGL
Weather: no significant weather forecast for this period
Text: PROB30
Forecast period: 0600 to 0800 UTC 16 January 2019
Forecast type: TEMPORARY: The following changes expected for less than half the time period
Visibility: missing
Ceiling: 1400 feet AGL
Clouds: broken clouds at 1400 feet AGL
Weather: no significant weather forecast for this period

 AIRPORT MAP

Esri Leaflet Quickstart
 RUNWAY INFORMATION
Runway 12 Runway length 9022 ft Runway width 148 ft
Runway elevation 52 ft Runway displaced threshold 0 ft Runway heading 119
Runway 30 Runway length 9022 ft Runway width 148 ft
Runway elevation 31 ft Runway displaced threshold 0 ft Runway heading 299
Runway 13 Runway length 10500 ft Runway width 148 ft
Runway elevation 52 ft Runway displaced threshold 0 ft Runway heading 133
Runway 31 Runway length 10500 ft Runway width 148 ft
Runway elevation 31 ft Runway displaced threshold 0 ft Runway heading 313

 AIRPORT FREQUENCIES
Type A/D Name APP Frequency 123.85 MHZ
Type ATIS Name ATIS Frequency 120.375 MHZ
Type CLD Name CLR DEL Frequency 121.875 MHZ
Type GND Name GND-W Frequency 121.7 MHZ
Type GND Name GND-E Frequency 121.95 MHZ
Type TWR Name TWR-W (RWY Frequency 118.15 MHZ
Type TWR Name TWR-E (RWY Frequency 118.775 MHZ

 AIRPORT NEAR NAVIGATION AIDS
Type VOR-DME Name Martin Frequency 112600 KHZ
Type VOR-DME Name Malaga Frequency 112000 KHZ
Type VOR-DME Name Malaga Frequency 113550 KHZ
Type NDB Name Malaga Frequency 330 KHZ



Powered by Virtual Airlines Manager [v2.6.2]